createdAt,value
2019-05-07T00:02:18.953Z,3.80
2019-05-07T00:04:47.649Z,3.90
2019-05-07T00:07:16.180Z,3.90
2019-05-07T00:09:44.760Z,3.90
2019-05-07T00:12:13.227Z,3.90
2019-05-07T00:14:42.906Z,3.90
2019-05-07T00:17:13.065Z,3.90
2019-05-07T00:19:43.164Z,3.90
2019-05-07T00:22:12.518Z,3.90
2019-05-07T00:24:42.600Z,4.00
2019-05-07T00:27:13.127Z,4.00
2019-05-07T00:29:42.874Z,3.90
2019-05-07T00:32:12.150Z,3.80
2019-05-07T00:34:42.641Z,3.80
2019-05-07T00:37:13.161Z,3.80
2019-05-07T00:39:43.403Z,3.70
2019-05-07T00:42:25.724Z,3.70
2019-05-07T00:45:13.240Z,3.80
2019-05-07T00:47:28.806Z,3.80
2019-05-07T00:49:59.043Z,3.80
2019-05-07T00:52:27.672Z,3.80
2019-05-07T00:54:56.241Z,3.90
2019-05-07T00:57:24.705Z,3.80
2019-05-07T00:59:53.217Z,3.90
2019-05-07T01:02:23.090Z,3.90
2019-05-07T01:04:53.201Z,3.80
2019-05-07T01:07:22.955Z,3.70
2019-05-07T01:09:52.439Z,3.70
2019-05-07T01:12:22.156Z,3.60
2019-05-07T01:14:52.793Z,3.60
2019-05-07T01:17:22.678Z,3.50
2019-05-07T01:19:53.237Z,3.50
2019-05-07T01:22:22.265Z,3.40
2019-05-07T01:24:52.577Z,3.30
2019-05-07T01:27:22.652Z,3.30
2019-05-07T01:29:52.799Z,3.20
2019-05-07T01:32:23.086Z,3.20
2019-05-07T01:34:56.063Z,3.10
2019-05-07T01:37:24.618Z,3.00
2019-05-07T01:39:53.172Z,2.90
2019-05-07T01:42:22.214Z,2.80
2019-05-07T01:44:52.834Z,2.70
2019-05-07T01:47:23.404Z,2.60
2019-05-07T01:49:52.409Z,2.50
2019-05-07T01:52:22.636Z,2.40
2019-05-07T01:54:52.290Z,2.30
2019-05-07T01:57:22.956Z,2.20
2019-05-07T01:59:52.763Z,2.10
2019-05-07T02:02:23.167Z,2.10
2019-05-07T02:04:56.086Z,2.00
2019-05-07T02:07:29.181Z,1.90
2019-05-07T02:10:08.138Z,1.80
2019-05-07T02:12:37.916Z,1.70
2019-05-07T02:15:07.996Z,1.60
2019-05-07T02:17:36.531Z,1.40
2019-05-07T02:20:06.724Z,1.20
2019-05-07T02:22:35.266Z,1.10
2019-05-07T02:25:04.402Z,1.00
2019-05-07T02:27:33.078Z,0.90
2019-05-07T02:30:04.668Z,0.80
2019-05-07T02:32:33.794Z,0.70
2019-05-07T02:35:03.995Z,0.70
2019-05-07T02:37:46.885Z,0.80
2019-05-07T02:40:08.269Z,0.90
2019-05-07T02:42:36.878Z,0.90
2019-05-07T02:45:08.142Z,0.90
2019-05-07T02:47:36.624Z,0.70
2019-05-07T02:50:13.057Z,0.60
2019-05-07T02:52:53.639Z,0.40
2019-05-07T02:55:23.610Z,0.30
2019-05-07T02:57:53.961Z,0.20
2019-05-07T03:00:24.129Z,0.10
2019-05-07T03:02:53.240Z,0.00
2019-05-07T03:05:22.941Z,0.00
2019-05-07T03:07:53.482Z,-0.10
2019-05-07T03:10:23.739Z,-0.10
2019-05-07T03:12:53.618Z,-0.10
2019-05-07T03:15:24.207Z,-0.20
2019-05-07T03:17:53.789Z,-0.30
2019-05-07T03:20:24.187Z,-0.40
2019-05-07T03:22:53.788Z,-0.40
2019-05-07T03:25:26.672Z,-0.50
2019-05-07T03:27:55.379Z,-0.50
2019-05-07T03:30:26.455Z,-0.60
2019-05-07T03:33:16.077Z,-0.60
2019-05-07T03:35:46.900Z,-0.60
2019-05-07T03:38:15.544Z,-0.70
2019-05-07T03:40:44.853Z,-0.80
2019-05-07T03:43:14.309Z,-0.80
2019-05-07T03:45:56.700Z,-0.80
2019-05-07T03:48:26.888Z,-0.80
2019-05-07T03:50:55.497Z,-0.80
2019-05-07T03:53:24.035Z,-0.90
2019-05-07T03:55:53.676Z,-0.90
2019-05-07T03:58:23.784Z,-0.90
2019-05-07T04:00:53.559Z,-0.90
2019-05-07T04:03:24.258Z,-0.80
2019-05-07T04:05:53.371Z,-0.80
2019-05-07T04:08:23.772Z,-0.80
2019-05-07T04:10:53.847Z,-0.80
2019-05-07T04:13:23.928Z,-0.80
2019-05-07T04:15:52.799Z,-0.80
2019-05-07T04:18:23.749Z,-0.80
2019-05-07T04:20:53.976Z,-0.70
2019-05-07T04:23:23.224Z,-0.70
2019-05-07T04:26:08.932Z,-0.70
2019-05-07T04:28:55.323Z,-0.60
2019-05-07T04:31:25.630Z,-0.60
2019-05-07T04:33:55.583Z,-0.50
2019-05-07T04:36:25.829Z,-0.50
2019-05-07T04:38:54.386Z,-0.40
2019-05-07T04:41:23.500Z,-0.30
2019-05-07T04:43:54.037Z,-0.30
2019-05-07T04:46:23.607Z,-0.20
2019-05-07T04:48:52.782Z,-0.10
2019-05-07T04:51:23.418Z,0.00
2019-05-07T04:53:54.033Z,0.10
2019-05-07T04:56:23.819Z,0.20
2019-05-07T04:58:53.253Z,0.30
2019-05-07T05:01:23.741Z,0.40
2019-05-07T05:03:54.000Z,0.50
2019-05-07T05:06:24.238Z,0.60
2019-05-07T05:08:56.063Z,0.80
2019-05-07T05:11:23.823Z,0.90
2019-05-07T05:13:53.332Z,1.10
2019-05-07T05:16:25.923Z,1.30
2019-05-07T05:18:56.005Z,1.40
2019-05-07T05:21:44.489Z,1.80
2019-05-07T05:24:14.802Z,2.10
2019-05-07T05:26:43.346Z,2.20
2019-05-07T05:29:12.230Z,2.40
2019-05-07T05:31:42.180Z,2.50
2019-05-07T05:34:12.963Z,2.60
2019-05-07T05:36:42.443Z,2.70
2019-05-07T05:39:13.155Z,2.90
2019-05-07T05:41:43.754Z,3.10
2019-05-07T05:44:26.119Z,3.30
2019-05-07T05:46:54.594Z,3.60
2019-05-07T05:49:23.139Z,3.90
2019-05-07T05:51:59.234Z,4.20
2019-05-07T05:54:31.720Z,4.40
2019-05-07T05:57:02.601Z,4.60
2019-05-07T05:59:51.718Z,4.80
2019-05-07T06:02:28.231Z,4.80
2019-05-07T06:04:58.409Z,5.10
2019-05-07T06:07:42.724Z,5.20
2019-05-07T06:10:29.270Z,5.30
2019-05-07T06:13:02.544Z,5.50
2019-05-07T06:15:48.463Z,5.60
2019-05-07T06:18:34.352Z,5.70
2019-05-07T06:21:20.823Z,6.00
2019-05-07T06:23:52.799Z,6.30
2019-05-07T06:26:22.695Z,6.40
2019-05-07T06:28:51.899Z,6.50
2019-05-07T06:31:22.175Z,6.70
2019-05-07T06:33:52.343Z,6.80
2019-05-07T06:36:22.014Z,6.90
2019-05-07T06:38:53.101Z,7.10
2019-05-07T06:41:41.748Z,7.30
2019-05-07T06:44:12.702Z,7.50
2019-05-07T06:46:41.915Z,7.70
2019-05-07T06:49:12.537Z,8.00
2019-05-07T06:51:41.962Z,8.10
2019-05-07T06:54:12.848Z,8.20
2019-05-07T06:56:42.154Z,8.40
2019-05-07T06:59:13.027Z,8.50
2019-05-07T07:01:43.372Z,8.50
2019-05-07T07:04:19.408Z,8.40
2019-05-07T07:06:49.648Z,8.60
2019-05-07T07:09:28.837Z,8.70
2019-05-07T07:12:14.706Z,8.70
2019-05-07T07:14:43.255Z,8.70
2019-05-07T07:17:12.892Z,8.80
2019-05-07T07:19:42.794Z,9.00
2019-05-07T07:22:12.970Z,9.50
2019-05-07T07:24:42.443Z,10.30
2019-05-07T07:27:13.200Z,11.10
2019-05-07T07:29:44.996Z,11.90
2019-05-07T07:32:14.926Z,12.30
2019-05-07T07:34:45.155Z,12.90
2019-05-07T07:37:27.188Z,13.50
2019-05-07T07:40:09.253Z,13.90
2019-05-07T07:42:37.763Z,13.80
2019-05-07T07:45:16.849Z,14.60
2019-05-07T07:47:46.434Z,15.60
2019-05-07T07:50:15.664Z,15.90
2019-05-07T07:52:44.410Z,15.90
2019-05-07T07:55:14.209Z,15.20
2019-05-07T07:57:53.367Z,15.30
2019-05-07T08:00:32.991Z,15.60
2019-05-07T08:03:03.232Z,15.40
2019-05-07T08:05:32.544Z,15.20
2019-05-07T08:08:02.252Z,15.20
2019-05-07T08:10:32.581Z,15.80
2019-05-07T08:13:01.989Z,16.00
2019-05-07T08:15:32.865Z,16.70
2019-05-07T08:18:02.880Z,15.90
2019-05-07T08:20:32.632Z,14.70
2019-05-07T08:23:02.902Z,14.60
2019-05-07T08:25:49.498Z,15.50
2019-05-07T08:28:19.402Z,16.30
2019-05-07T08:31:07.391Z,16.50
2019-05-07T08:33:42.515Z,16.30
2019-05-07T08:36:14.870Z,15.90
2019-05-07T08:38:57.673Z,16.10
2019-05-07T08:41:27.593Z,16.40
2019-05-07T08:44:10.654Z,16.10
2019-05-07T08:46:30.011Z,16.70
2019-05-07T08:48:58.477Z,16.70
2019-05-07T08:51:27.112Z,17.40
2019-05-07T08:54:07.691Z,16.50
2019-05-07T08:56:36.976Z,15.50
2019-05-07T08:59:06.391Z,15.90
2019-05-07T09:01:36.666Z,16.30
2019-05-07T09:04:05.661Z,16.70
2019-05-07T09:06:34.336Z,16.80
2019-05-07T09:09:06.503Z,17.20
2019-05-07T09:11:35.139Z,17.30
2019-05-07T09:14:03.838Z,17.40
2019-05-07T09:16:32.465Z,18.00
2019-05-07T09:19:02.163Z,18.00
2019-05-07T09:21:32.174Z,18.00
2019-05-07T09:24:02.571Z,18.90
2019-05-07T09:26:44.963Z,18.60
2019-05-07T09:29:23.703Z,19.10
2019-05-07T09:31:53.910Z,19.20
2019-05-07T09:34:26.837Z,19.70
2019-05-07T09:37:02.245Z,18.50
2019-05-07T09:39:32.288Z,19.00
2019-05-07T09:42:02.204Z,19.30
2019-05-07T09:44:32.369Z,18.80
2019-05-07T09:47:02.637Z,19.00
2019-05-07T09:49:32.650Z,19.60
2019-05-07T09:52:03.259Z,20.60
2019-05-07T09:54:32.459Z,20.40
2019-05-07T09:57:01.916Z,19.70
2019-05-07T09:59:32.521Z,19.60
2019-05-07T10:02:01.862Z,20.10
2019-05-07T10:04:32.575Z,20.30
2019-05-07T10:07:02.565Z,20.70
2019-05-07T10:09:32.788Z,21.30
2019-05-07T10:12:03.192Z,20.30
2019-05-07T10:14:33.066Z,19.40
2019-05-07T10:17:15.071Z,19.30
2019-05-07T10:19:43.753Z,19.30
2019-05-07T10:22:12.705Z,19.50
2019-05-07T10:24:41.928Z,19.80
2019-05-07T10:27:12.705Z,20.20
2019-05-07T10:29:42.753Z,20.80
2019-05-07T10:32:12.813Z,21.40
2019-05-07T10:34:42.229Z,21.50
2019-05-07T10:37:12.026Z,20.80
2019-05-07T10:39:42.900Z,18.90
2019-05-07T10:42:12.318Z,17.70
2019-05-07T10:44:43.262Z,17.10
2019-05-07T10:47:29.453Z,17.00
2019-05-07T10:50:15.815Z,17.40
2019-05-07T10:52:44.469Z,17.90
2019-05-07T10:55:13.474Z,18.50
2019-05-07T10:57:42.327Z,19.00
2019-05-07T11:00:12.427Z,19.90
2019-05-07T11:02:42.591Z,19.60
2019-05-07T11:05:13.057Z,19.70
2019-05-07T11:07:42.196Z,20.70
2019-05-07T11:10:12.415Z,21.10
2019-05-07T11:12:42.428Z,20.70
2019-05-07T11:15:12.604Z,20.80
2019-05-07T11:17:54.769Z,21.10
2019-05-07T11:20:23.553Z,21.10
2019-05-07T11:22:52.298Z,20.80
2019-05-07T11:25:22.516Z,19.80
2019-05-07T11:27:52.368Z,19.90
2019-05-07T11:30:22.803Z,21.50
2019-05-07T11:32:52.268Z,22.60
2019-05-07T11:35:22.956Z,24.00
2019-05-07T11:37:52.136Z,23.50
2019-05-07T11:40:23.234Z,22.80
2019-05-07T11:43:09.963Z,22.30
2019-05-07T11:45:42.658Z,21.60
2019-05-07T11:48:13.312Z,21.70
2019-05-07T11:50:46.026Z,21.60
2019-05-07T11:53:18.874Z,21.50
2019-05-07T11:55:47.421Z,21.50
2019-05-07T11:58:16.384Z,20.30
2019-05-07T12:00:52.200Z,20.40
2019-05-07T12:03:22.124Z,20.40
2019-05-07T12:05:52.496Z,22.10
2019-05-07T12:08:22.416Z,22.50
2019-05-07T12:10:51.841Z,21.90
2019-05-07T12:13:21.819Z,22.60
2019-05-07T12:15:52.183Z,23.10
2019-05-07T12:18:22.507Z,23.70
2019-05-07T12:20:53.884Z,23.70
2019-05-07T12:23:22.585Z,22.50
2019-05-07T12:25:52.842Z,21.60
2019-05-07T12:28:22.535Z,21.40
2019-05-07T12:30:52.945Z,21.10
2019-05-07T12:33:23.190Z,20.80
2019-05-07T12:35:52.471Z,21.10
2019-05-07T12:38:21.961Z,20.90
2019-05-07T12:40:52.348Z,20.10
2019-05-07T12:43:20.771Z,19.90
2019-05-07T12:45:49.311Z,19.60
2019-05-07T12:48:17.874Z,19.70
2019-05-07T12:50:46.456Z,19.90
2019-05-07T12:53:16.669Z,19.70
2019-05-07T12:55:55.629Z,19.30
2019-05-07T12:58:24.240Z,19.20
2019-05-07T13:00:54.446Z,19.70
2019-05-07T13:03:27.415Z,19.30
2019-05-07T13:05:55.905Z,19.20
2019-05-07T13:08:24.546Z,19.80
2019-05-07T13:10:53.269Z,20.70
2019-05-07T13:13:21.980Z,20.60
2019-05-07T13:15:51.794Z,21.10
2019-05-07T13:18:22.491Z,20.90
2019-05-07T13:20:51.929Z,20.60
2019-05-07T13:23:22.498Z,20.60
2019-05-07T13:25:52.274Z,20.90
2019-05-07T13:28:20.869Z,20.60
2019-05-07T13:30:49.502Z,20.90
2019-05-07T13:33:18.638Z,21.20
2019-05-07T13:35:47.623Z,21.60
2019-05-07T13:38:21.356Z,21.90
2019-05-07T13:40:52.921Z,22.10
2019-05-07T13:43:29.710Z,22.10
2019-05-07T13:46:03.202Z,22.00
2019-05-07T13:48:32.396Z,22.40
2019-05-07T13:51:03.651Z,22.10
2019-05-07T13:53:34.561Z,22.20
2019-05-07T13:56:03.233Z,21.50
2019-05-07T13:58:33.025Z,22.00
2019-05-07T14:01:19.954Z,21.90
2019-05-07T14:03:50.121Z,22.10
2019-05-07T14:06:36.465Z,22.60
2019-05-07T14:09:08.637Z,23.10
2019-05-07T14:11:37.302Z,24.80
2019-05-07T14:14:08.341Z,24.70
2019-05-07T14:16:37.688Z,24.20
2019-05-07T14:19:07.396Z,23.90
2019-05-07T14:21:36.305Z,23.20
2019-05-07T14:24:06.384Z,23.40
2019-05-07T14:26:36.082Z,24.20
2019-05-07T14:29:05.146Z,24.70
2019-05-07T14:31:34.677Z,24.10
2019-05-07T14:34:04.878Z,24.10
2019-05-07T14:36:35.060Z,24.20
2019-05-07T14:39:08.767Z,24.50
2019-05-07T14:41:42.715Z,24.90
2019-05-07T14:44:12.217Z,24.10
2019-05-07T14:46:50.336Z,24.30
2019-05-07T14:49:12.175Z,24.90
2019-05-07T14:51:40.994Z,25.80
2019-05-07T14:54:09.710Z,25.80
2019-05-07T14:56:38.791Z,24.80
2019-05-07T14:59:07.975Z,24.10
2019-05-07T15:01:39.072Z,23.10
2019-05-07T15:04:08.395Z,23.20
2019-05-07T15:06:37.344Z,23.90
2019-05-07T15:09:06.998Z,24.40
2019-05-07T15:11:36.105Z,24.90
2019-05-07T15:14:05.389Z,24.50
2019-05-07T15:16:34.198Z,25.10
2019-05-07T15:19:02.884Z,25.70
2019-05-07T15:21:32.298Z,25.20
2019-05-07T15:24:04.099Z,25.10
2019-05-07T15:26:34.839Z,24.70
2019-05-07T15:29:05.882Z,24.40
2019-05-07T15:31:36.592Z,23.00
2019-05-07T15:34:05.872Z,22.00
2019-05-07T15:36:34.534Z,21.30
2019-05-07T15:39:05.536Z,21.00
2019-05-07T15:41:34.202Z,21.30
2019-05-07T15:44:02.858Z,21.70
2019-05-07T15:46:32.259Z,21.30
2019-05-07T15:49:01.796Z,21.10
2019-05-07T15:51:30.406Z,21.20
2019-05-07T15:54:00.298Z,21.40
2019-05-07T15:56:28.875Z,20.70
2019-05-07T15:58:57.928Z,20.20
2019-05-07T16:01:26.721Z,19.90
2019-05-07T16:03:55.415Z,20.00
2019-05-07T16:06:24.082Z,20.10
2019-05-07T16:08:54.341Z,20.00
2019-05-07T16:11:23.629Z,20.20
2019-05-07T16:14:06.126Z,20.10
2019-05-07T16:16:37.098Z,19.60
2019-05-07T16:19:12.252Z,19.40
2019-05-07T16:21:42.505Z,18.80
2019-05-07T16:24:12.128Z,18.30
2019-05-07T16:26:41.855Z,17.80
2019-05-07T16:29:13.307Z,17.40
2019-05-07T16:31:44.222Z,17.00
2019-05-07T16:34:12.783Z,16.50
2019-05-07T16:36:41.969Z,15.90
2019-05-07T16:39:12.085Z,15.60
2019-05-07T16:41:42.223Z,15.40
2019-05-07T16:44:12.257Z,15.10
2019-05-07T16:46:42.111Z,14.90
2019-05-07T16:49:12.053Z,14.70
2019-05-07T16:51:44.616Z,14.50
2019-05-07T16:54:12.362Z,14.40
2019-05-07T16:56:42.839Z,14.30
2019-05-07T16:59:12.587Z,14.20
2019-05-07T17:01:42.856Z,14.20
2019-05-07T17:04:12.145Z,14.10
2019-05-07T17:06:42.619Z,13.90
2019-05-07T17:09:13.559Z,13.70
2019-05-07T17:11:43.709Z,13.50
2019-05-07T17:14:13.679Z,13.30
2019-05-07T17:16:43.412Z,13.10
2019-05-07T17:19:14.154Z,13.00
2019-05-07T17:21:45.229Z,13.00
2019-05-07T17:24:14.022Z,12.80
2019-05-07T17:26:44.133Z,12.60
2019-05-07T17:29:13.727Z,12.50
2019-05-07T17:31:42.663Z,12.40
2019-05-07T17:34:12.762Z,12.30
2019-05-07T17:36:44.238Z,12.10
2019-05-07T17:39:13.050Z,12.00
2019-05-07T17:41:42.904Z,11.80
2019-05-07T17:44:12.023Z,11.80
2019-05-07T17:46:42.899Z,11.70
2019-05-07T17:49:12.654Z,11.60
2019-05-07T17:51:43.167Z,11.50
2019-05-07T17:54:13.540Z,11.30
2019-05-07T17:56:43.450Z,11.30
2019-05-07T17:59:13.805Z,11.20
2019-05-07T18:01:43.937Z,11.10
2019-05-07T18:04:12.696Z,11.10
2019-05-07T18:06:42.808Z,10.90
2019-05-07T18:09:12.210Z,10.80
2019-05-07T18:11:42.727Z,10.60
2019-05-07T18:14:11.108Z,10.50
2019-05-07T18:16:56.116Z,10.40
2019-05-07T18:19:24.835Z,10.20
2019-05-07T18:21:53.462Z,10.00
2019-05-07T18:24:22.440Z,9.90
2019-05-07T18:26:52.609Z,9.90
2019-05-07T18:29:22.482Z,9.80
2019-05-07T18:31:58.675Z,9.70
2019-05-07T18:34:27.271Z,9.60
2019-05-07T18:36:55.855Z,9.30
2019-05-07T18:39:24.397Z,9.00
2019-05-07T18:41:52.942Z,8.80
2019-05-07T18:44:22.338Z,8.70
2019-05-07T18:46:52.872Z,8.70
2019-05-07T18:49:21.255Z,8.60
2019-05-07T18:51:52.003Z,8.50
2019-05-07T18:54:27.868Z,8.40
2019-05-07T18:56:50.348Z,8.30
2019-05-07T18:59:22.058Z,8.10
2019-05-07T19:01:52.680Z,8.00
2019-05-07T19:04:21.931Z,7.90
2019-05-07T19:06:51.730Z,7.90
2019-05-07T19:09:22.481Z,7.80
2019-05-07T19:11:52.202Z,7.70
2019-05-07T19:14:22.650Z,7.60
2019-05-07T19:16:52.624Z,7.50
2019-05-07T19:19:22.114Z,7.40
2019-05-07T19:21:52.787Z,7.20
2019-05-07T19:24:23.078Z,7.00
2019-05-07T19:26:52.804Z,6.80
2019-05-07T19:29:23.279Z,6.70
2019-05-07T19:31:52.599Z,6.70
2019-05-07T19:34:21.955Z,6.70
2019-05-07T19:36:52.065Z,6.70
2019-05-07T19:39:23.193Z,6.50
2019-05-07T19:41:52.338Z,6.40
2019-05-07T19:44:21.075Z,6.30
2019-05-07T19:46:49.671Z,6.10
2019-05-07T19:52:15.755Z,6.00
2019-05-07T19:54:57.872Z,5.60
2019-05-07T19:57:25.460Z,5.40
2019-05-07T19:59:54.053Z,5.30
2019-05-07T20:02:26.935Z,5.20
2019-05-07T20:04:54.443Z,5.20
2019-05-07T20:07:23.062Z,5.30
2019-05-07T20:09:52.474Z,5.30
2019-05-07T20:12:21.103Z,5.20
2019-05-07T20:14:51.637Z,5.30
2019-05-07T20:17:22.126Z,5.20
2019-05-07T20:19:52.611Z,5.20
2019-05-07T20:22:22.178Z,5.20
2019-05-07T20:24:52.737Z,5.20
2019-05-07T20:27:23.091Z,5.20
2019-05-07T20:29:52.255Z,5.10
2019-05-07T20:32:22.522Z,5.10
2019-05-07T20:34:52.082Z,5.10
2019-05-07T20:37:22.095Z,5.10
2019-05-07T20:39:53.227Z,5.10
2019-05-07T20:42:23.178Z,5.10
2019-05-07T20:44:53.142Z,5.00
2019-05-07T20:47:22.349Z,4.90
2019-05-07T20:49:50.989Z,4.80
2019-05-07T20:52:19.672Z,4.80
2019-05-07T20:54:49.928Z,4.80
2019-05-07T20:57:22.416Z,4.70
2019-05-07T20:59:51.646Z,4.60
2019-05-07T21:02:22.740Z,4.50
2019-05-07T21:04:51.930Z,4.40
2019-05-07T21:07:22.153Z,4.30
2019-05-07T21:09:53.784Z,4.10
2019-05-07T21:12:22.754Z,4.00
2019-05-07T21:14:52.460Z,3.90
2019-05-07T21:17:22.872Z,3.80
2019-05-07T21:19:52.158Z,3.80
2019-05-07T21:22:22.644Z,3.80
2019-05-07T21:24:53.298Z,3.70
2019-05-07T21:27:23.242Z,3.70
2019-05-07T21:29:52.845Z,3.70
2019-05-07T21:32:23.058Z,3.70
2019-05-07T21:34:52.869Z,3.80
2019-05-07T21:37:22.880Z,3.60
2019-05-07T21:39:53.180Z,3.60
2019-05-07T21:42:22.809Z,3.50
2019-05-07T21:44:52.730Z,3.50
2019-05-07T21:47:22.282Z,3.50
2019-05-07T21:49:57.468Z,3.50
2019-05-07T21:52:27.358Z,3.40
2019-05-07T21:55:02.404Z,3.30
2019-05-07T21:57:33.051Z,3.20
2019-05-07T22:00:12.624Z,3.30
2019-05-07T22:02:42.419Z,3.40
2019-05-07T22:05:11.975Z,3.40
2019-05-07T22:07:40.481Z,3.50
2019-05-07T22:10:09.183Z,3.60
2019-05-07T22:12:40.126Z,3.50
2019-05-07T22:15:12.758Z,3.40
2019-05-07T22:17:44.158Z,3.30
2019-05-07T22:20:11.966Z,3.40
2019-05-07T22:22:42.244Z,3.50
2019-05-07T22:25:13.085Z,3.70
2019-05-07T22:27:42.173Z,3.80
2019-05-07T22:30:12.817Z,3.70
2019-05-07T22:32:52.758Z,3.60
2019-05-07T22:35:26.508Z,3.60
2019-05-07T22:37:55.188Z,3.70
2019-05-07T22:40:23.701Z,3.60
2019-05-07T22:42:52.221Z,3.50
2019-05-07T22:45:22.714Z,3.40
2019-05-07T22:47:52.559Z,3.30
2019-05-07T22:50:22.567Z,3.30
2019-05-07T22:52:54.206Z,3.40
2019-05-07T22:55:21.799Z,3.40
2019-05-07T22:58:04.340Z,3.40
2019-05-07T23:00:34.625Z,3.40
2019-05-07T23:03:03.234Z,3.50
2019-05-07T23:05:32.467Z,3.70
2019-05-07T23:08:02.370Z,3.80
2019-05-07T23:10:33.235Z,3.90
2019-05-07T23:13:02.416Z,4.00
2019-05-07T23:15:32.143Z,4.00
2019-05-07T23:18:04.165Z,4.10
2019-05-07T23:20:32.009Z,4.10
2019-05-07T23:23:00.811Z,4.00
2019-05-07T23:25:29.351Z,3.90
2019-05-07T23:27:57.997Z,3.80
2019-05-07T23:30:26.495Z,3.80
2019-05-07T23:32:55.081Z,3.80
2019-05-07T23:35:23.670Z,3.80
2019-05-07T23:37:52.994Z,3.80
2019-05-07T23:40:32.227Z,3.70
2019-05-07T23:43:04.861Z,3.70
2019-05-07T23:45:33.365Z,3.60
2019-05-07T23:48:02.806Z,3.50
2019-05-07T23:50:32.382Z,3.40
2019-05-07T23:53:02.266Z,3.40
2019-05-07T23:55:31.855Z,3.30
2019-05-07T23:58:00.462Z,3.30
